createdAt,value
2023-10-05T00:02:37.385Z,1.55
2023-10-05T00:06:07.403Z,1.52
2023-10-05T00:09:31.168Z,1.60
2023-10-05T00:12:56.607Z,1.67
2023-10-05T00:16:23.261Z,1.40
2023-10-05T00:19:47.926Z,1.70
2023-10-05T00:23:12.000Z,1.62
2023-10-05T00:26:36.467Z,3.65
2023-10-05T00:30:00.209Z,5.32
2023-10-05T00:33:26.649Z,1.67
2023-10-05T00:36:51.865Z,1.30
2023-10-05T00:40:32.371Z,2.30
2023-10-05T00:43:56.940Z,1.48
2023-10-05T00:47:21.103Z,1.42
2023-10-05T00:50:48.062Z,7.90
2023-10-05T00:54:16.077Z,2.20
2023-10-05T00:57:39.920Z,1.92
2023-10-05T01:01:07.331Z,1.55
2023-10-05T01:04:36.365Z,1.23
2023-10-05T01:08:05.740Z,1.47
2023-10-05T01:11:38.773Z,2.00
2023-10-05T01:15:06.724Z,1.75
2023-10-05T01:18:32.541Z,1.77
2023-10-05T01:21:58.886Z,1.77
2023-10-05T01:25:23.951Z,1.30
2023-10-05T01:28:47.927Z,1.73
2023-10-05T01:32:12.460Z,1.62
2023-10-05T01:35:39.164Z,1.50
2023-10-05T01:39:09.707Z,1.45
2023-10-05T01:42:35.130Z,1.30
2023-10-05T01:45:58.954Z,1.73
2023-10-05T01:49:23.229Z,1.75
2023-10-05T01:52:47.510Z,1.60
2023-10-05T01:56:19.242Z,1.97
2023-10-05T01:59:45.576Z,1.87
2023-10-05T02:03:11.547Z,2.17
2023-10-05T02:06:41.470Z,1.92
2023-10-05T02:10:11.024Z,1.60
2023-10-05T02:13:34.944Z,1.73
2023-10-05T02:17:00.229Z,1.67
2023-10-05T02:20:39.953Z,1.50
2023-10-05T02:24:12.137Z,1.73
2023-10-05T02:27:39.906Z,1.70
2023-10-05T02:31:10.397Z,1.90
2023-10-05T02:34:41.185Z,1.90
2023-10-05T02:38:07.740Z,2.00
2023-10-05T02:41:39.659Z,1.70
2023-10-05T02:45:05.981Z,1.90
2023-10-05T02:48:32.164Z,1.40
2023-10-05T02:51:56.701Z,1.80
2023-10-05T02:55:19.879Z,1.70
2023-10-05T02:58:45.051Z,2.17
2023-10-05T03:02:10.972Z,1.60
2023-10-05T03:05:36.740Z,1.60
2023-10-05T03:09:08.729Z,1.42
2023-10-05T03:12:33.804Z,1.55
2023-10-05T03:16:00.841Z,1.80
2023-10-05T03:19:24.916Z,1.92
2023-10-05T03:22:48.731Z,2.53
2023-10-05T03:26:19.778Z,1.80
2023-10-05T03:29:47.710Z,1.92
2023-10-05T03:33:14.179Z,2.60
2023-10-05T03:36:37.838Z,2.47
2023-10-05T03:40:09.547Z,1.77
2023-10-05T03:43:34.601Z,1.60
2023-10-05T03:46:59.370Z,1.80
2023-10-05T03:50:24.330Z,1.92
2023-10-05T03:53:54.753Z,2.17
2023-10-05T03:57:18.362Z,2.30
2023-10-05T04:00:51.076Z,7.47
2023-10-05T04:04:15.430Z,12.90
2023-10-05T04:07:39.855Z,2.08
2023-10-05T04:11:06.048Z,1.90
2023-10-05T04:14:30.162Z,2.70
2023-10-05T04:17:55.712Z,2.33
2023-10-05T04:21:20.976Z,2.10
2023-10-05T04:24:46.124Z,2.50
2023-10-05T04:28:10.429Z,2.37
2023-10-05T04:31:37.733Z,3.83
2023-10-05T04:35:09.706Z,2.08
2023-10-05T04:38:34.066Z,2.05
2023-10-05T04:42:00.597Z,1.55
2023-10-05T04:45:25.245Z,1.97
2023-10-05T04:48:58.470Z,3.20
2023-10-05T04:52:25.696Z,2.80
2023-10-05T04:55:55.031Z,2.90
2023-10-05T04:59:26.500Z,2.62
2023-10-05T05:03:06.658Z,2.55
2023-10-05T05:06:33.533Z,3.40
2023-10-05T05:10:03.558Z,2.83
2023-10-05T05:13:29.624Z,3.03
2023-10-05T05:16:53.926Z,3.93
2023-10-05T05:20:18.810Z,2.75
2023-10-05T05:23:42.546Z,2.40
2023-10-05T05:27:13.391Z,2.55
2023-10-05T05:30:38.098Z,10.83
2023-10-05T05:34:03.644Z,4.35
2023-10-05T05:37:30.929Z,4.10
2023-10-05T05:40:55.380Z,3.83
2023-10-05T05:44:23.301Z,3.45
2023-10-05T05:47:47.718Z,5.83
2023-10-05T05:51:16.043Z,7.05
2023-10-05T05:54:40.402Z,9.35
2023-10-05T05:58:06.197Z,3.62
2023-10-05T06:01:42.760Z,4.28
2023-10-05T06:05:09.447Z,3.00
2023-10-05T06:08:32.430Z,3.33
2023-10-05T06:11:55.596Z,3.25
2023-10-05T06:15:18.493Z,11.57
2023-10-05T06:18:43.637Z,20.98
2023-10-05T06:22:08.159Z,7.60
2023-10-05T06:25:32.883Z,10.15
2023-10-05T06:28:57.349Z,3.45
2023-10-05T06:32:20.718Z,2.17
2023-10-05T06:35:45.412Z,1.65
2023-10-05T06:39:08.578Z,2.13
2023-10-05T06:42:31.838Z,3.08
2023-10-05T06:45:54.837Z,2.60
2023-10-05T06:49:17.673Z,2.80
2023-10-05T06:52:44.674Z,2.92
2023-10-05T06:56:08.186Z,2.40
2023-10-05T06:59:32.721Z,2.62
2023-10-05T07:02:56.576Z,2.50
2023-10-05T07:06:20.661Z,2.10
2023-10-05T07:09:46.376Z,2.25
2023-10-05T07:13:10.776Z,2.40
2023-10-05T07:16:34.304Z,2.95
2023-10-05T07:19:58.605Z,2.97
2023-10-05T07:23:22.456Z,2.45
2023-10-05T07:26:48.226Z,2.00
2023-10-05T07:30:12.771Z,2.23
2023-10-05T07:33:37.379Z,1.70
2023-10-05T07:37:01.815Z,1.12
2023-10-05T07:40:27.686Z,1.30
2023-10-05T07:47:42.449Z,1.70
2023-10-05T07:51:06.105Z,1.20
2023-10-05T07:54:30.058Z,1.00
2023-10-05T07:57:54.364Z,1.27
2023-10-05T08:01:20.305Z,1.15
2023-10-05T08:04:46.550Z,0.83
2023-10-05T08:08:11.995Z,0.98
2023-10-05T08:11:36.253Z,0.80
2023-10-05T08:15:01.221Z,0.80
2023-10-05T08:18:27.333Z,9.35
2023-10-05T08:21:51.067Z,1.80
2023-10-05T08:25:14.877Z,8.35
2023-10-05T08:28:38.798Z,7.97
2023-10-05T08:32:03.571Z,5.72
2023-10-05T08:35:28.970Z,6.40
2023-10-05T08:38:55.691Z,5.30
2023-10-05T08:42:19.487Z,6.22
2023-10-05T08:45:53.371Z,9.90
2023-10-05T08:49:17.870Z,1.67
2023-10-05T08:52:43.864Z,1.10
2023-10-05T08:56:06.585Z,1.07
2023-10-05T08:59:30.268Z,1.50
2023-10-05T09:02:54.335Z,1.25
2023-10-05T09:06:22.525Z,1.05
2023-10-05T09:09:55.910Z,0.98
2023-10-05T09:13:24.799Z,1.30
2023-10-05T09:16:57.429Z,1.12
2023-10-05T09:20:24.821Z,6.18
2023-10-05T09:23:52.756Z,8.02
2023-10-05T09:27:18.955Z,10.90
2023-10-05T09:30:57.479Z,1.53
2023-10-05T09:34:22.536Z,1.42
2023-10-05T09:37:48.099Z,1.50
2023-10-05T09:41:13.311Z,1.80
2023-10-05T09:44:38.715Z,2.30
2023-10-05T09:48:03.791Z,3.00
2023-10-05T09:51:28.179Z,3.50
2023-10-05T09:54:52.573Z,7.45
2023-10-05T09:58:19.811Z,2.10
2023-10-05T10:01:49.260Z,2.03
2023-10-05T10:05:31.861Z,1.77
2023-10-05T10:09:09.199Z,1.77
2023-10-05T10:12:40.142Z,1.87
2023-10-05T10:16:05.314Z,2.53
2023-10-05T10:19:46.916Z,1.70
2023-10-05T10:23:16.446Z,1.77
2023-10-05T10:26:43.177Z,1.60
2023-10-05T10:30:14.154Z,1.60
2023-10-05T10:33:38.794Z,2.27
2023-10-05T10:37:05.019Z,4.47
2023-10-05T10:40:31.845Z,6.25
2023-10-05T10:43:58.942Z,1.55
2023-10-05T10:47:24.115Z,2.07
2023-10-05T10:50:49.218Z,1.48
2023-10-05T10:54:17.169Z,4.40
2023-10-05T10:57:40.395Z,2.72
2023-10-05T11:01:05.888Z,3.58
2023-10-05T11:04:50.128Z,3.67
2023-10-05T11:08:22.324Z,2.65
2023-10-05T11:11:46.909Z,3.25
2023-10-05T11:15:12.924Z,3.12
2023-10-05T11:18:42.564Z,6.20
2023-10-05T11:22:13.666Z,5.53
2023-10-05T11:25:38.253Z,5.57
2023-10-05T11:29:11.718Z,5.40
2023-10-05T11:32:55.733Z,4.62
2023-10-05T11:36:23.973Z,5.33
2023-10-05T11:39:51.222Z,5.10
2023-10-05T11:43:16.998Z,5.18
2023-10-05T11:46:45.772Z,6.20
2023-10-05T11:50:10.571Z,6.18
2023-10-05T11:53:33.577Z,7.33
2023-10-05T11:56:57.352Z,5.12
2023-10-05T12:00:21.286Z,5.37
2023-10-05T12:03:48.882Z,5.37
2023-10-05T12:07:14.491Z,4.87
2023-10-05T12:10:39.582Z,4.53
2023-10-05T12:14:06.209Z,4.68
2023-10-05T12:17:30.645Z,5.90
2023-10-05T12:20:55.868Z,5.20
2023-10-05T12:24:19.152Z,7.78
2023-10-05T12:27:42.632Z,5.73
2023-10-05T12:31:08.265Z,12.43
2023-10-05T12:34:33.583Z,5.60
2023-10-05T12:38:00.244Z,6.93
2023-10-05T12:41:23.839Z,3.90
2023-10-05T12:44:49.012Z,1.73
2023-10-05T12:48:13.579Z,1.77
2023-10-05T12:51:37.765Z,1.83
2023-10-05T12:55:03.599Z,1.60
2023-10-05T12:58:27.458Z,1.83
2023-10-05T13:01:51.006Z,1.37
2023-10-05T13:05:28.602Z,2.00
2023-10-05T13:08:57.632Z,2.40
2023-10-05T13:12:23.303Z,1.70
2023-10-05T13:15:47.826Z,1.00
2023-10-05T13:19:14.695Z,1.23
2023-10-05T13:22:39.211Z,1.95
2023-10-05T13:26:03.395Z,2.20
2023-10-05T13:29:28.955Z,1.87
2023-10-05T13:32:59.482Z,1.60
2023-10-05T13:36:23.593Z,1.73
2023-10-05T13:39:47.493Z,1.50
2023-10-05T13:43:12.862Z,1.42
2023-10-05T13:46:44.803Z,1.50
2023-10-05T13:50:10.600Z,1.60
2023-10-05T13:53:36.583Z,3.35
2023-10-05T13:57:01.960Z,1.25
2023-10-05T14:00:26.496Z,1.80
2023-10-05T14:03:51.917Z,1.85
2023-10-05T14:07:15.506Z,1.43
2023-10-05T14:10:39.478Z,1.10
2023-10-05T14:14:02.609Z,1.33
2023-10-05T14:17:27.165Z,1.90
2023-10-05T14:20:52.657Z,1.60
2023-10-05T14:24:19.543Z,1.43
2023-10-05T14:27:48.515Z,1.60
2023-10-05T14:31:12.837Z,1.50
2023-10-05T14:34:36.870Z,1.55
2023-10-05T14:38:04.513Z,1.80
2023-10-05T14:41:27.352Z,1.35
2023-10-05T14:44:51.347Z,1.30
2023-10-05T14:48:15.640Z,1.55
2023-10-05T14:51:40.151Z,1.20
2023-10-05T14:55:05.583Z,1.60
2023-10-05T14:58:31.130Z,1.85
2023-10-05T15:01:56.654Z,1.48
2023-10-05T15:05:21.058Z,1.40
2023-10-05T15:08:47.136Z,1.45
2023-10-05T15:12:12.407Z,1.27
2023-10-05T15:15:35.801Z,1.95
2023-10-05T15:19:00.847Z,1.30
2023-10-05T15:22:26.697Z,1.80
2023-10-05T15:25:52.055Z,1.42
2023-10-05T15:29:18.362Z,1.47
2023-10-05T15:32:43.034Z,1.37
2023-10-05T15:36:07.627Z,1.42
2023-10-05T15:39:32.263Z,1.48
2023-10-05T15:42:56.259Z,1.55
2023-10-05T15:46:21.774Z,1.23
2023-10-05T15:49:46.823Z,1.60
2023-10-05T15:53:11.304Z,1.40
2023-10-05T15:56:34.926Z,2.62
2023-10-05T15:59:59.129Z,1.50
2023-10-05T16:03:24.437Z,1.90
2023-10-05T16:06:48.712Z,2.15
2023-10-05T16:10:12.598Z,1.23
2023-10-05T16:13:36.965Z,1.83
2023-10-05T16:17:00.730Z,1.50
2023-10-05T16:20:27.877Z,1.67
2023-10-05T16:23:51.561Z,4.12
2023-10-05T16:27:15.684Z,6.30
2023-10-05T16:30:39.676Z,3.30
2023-10-05T16:34:04.500Z,3.30
2023-10-05T16:37:32.218Z,4.13
2023-10-05T16:40:58.537Z,3.72
2023-10-05T16:44:23.359Z,3.72
2023-10-05T16:47:47.726Z,4.30
2023-10-05T16:51:12.122Z,5.55
2023-10-05T16:54:40.029Z,4.73
2023-10-05T16:58:05.898Z,4.32
2023-10-05T17:01:30.854Z,4.10
2023-10-05T17:04:55.806Z,4.62
2023-10-05T17:08:23.279Z,3.70
2023-10-05T17:11:49.125Z,4.00
2023-10-05T17:15:14.672Z,3.35
2023-10-05T17:18:40.675Z,3.62
2023-10-05T17:22:06.167Z,3.80
2023-10-05T17:25:34.748Z,3.25
2023-10-05T17:29:00.999Z,3.10
2023-10-05T17:32:26.550Z,3.65
2023-10-05T17:35:53.074Z,4.00
2023-10-05T17:39:17.776Z,3.28
2023-10-05T17:42:43.203Z,4.45
2023-10-05T17:46:11.409Z,4.87
2023-10-05T17:49:39.273Z,5.37
2023-10-05T17:53:08.149Z,6.12
2023-10-05T17:56:34.956Z,8.65
2023-10-05T17:59:59.287Z,9.05
2023-10-05T18:03:28.622Z,7.53
2023-10-05T18:06:54.723Z,9.02
2023-10-05T18:10:20.348Z,7.22
2023-10-05T18:13:48.008Z,5.30
2023-10-05T18:17:12.774Z,8.98
2023-10-05T18:20:41.532Z,3.53
2023-10-05T18:24:10.206Z,3.22
2023-10-05T18:27:37.579Z,4.53
2023-10-05T18:31:07.170Z,3.33
2023-10-05T18:34:34.472Z,3.10
2023-10-05T18:38:03.438Z,3.70
2023-10-05T18:41:31.110Z,5.80
2023-10-05T18:44:57.752Z,3.25
2023-10-05T18:48:23.804Z,3.20
2023-10-05T18:51:52.496Z,4.15
2023-10-05T18:55:22.493Z,3.77
2023-10-05T18:58:48.748Z,4.00
2023-10-05T19:02:19.869Z,3.72
2023-10-05T19:05:46.683Z,3.10
2023-10-05T19:09:14.391Z,2.53
2023-10-05T19:12:44.123Z,2.43
2023-10-05T19:16:12.482Z,4.93
2023-10-05T19:19:39.019Z,3.28
2023-10-05T19:23:06.947Z,11.27
2023-10-05T19:26:33.371Z,8.80
2023-10-05T19:30:01.066Z,2.97
2023-10-05T19:33:26.948Z,6.30
2023-10-05T19:36:52.068Z,3.55
2023-10-05T19:40:19.706Z,3.33
2023-10-05T19:43:46.533Z,3.47
2023-10-05T19:47:20.006Z,3.30
2023-10-05T19:50:46.146Z,5.22
2023-10-05T19:54:14.371Z,3.00
2023-10-05T19:57:41.672Z,4.25
2023-10-05T20:01:08.518Z,3.75
2023-10-05T20:04:37.114Z,7.03
2023-10-05T20:08:05.103Z,5.47
2023-10-05T20:11:30.073Z,5.15
2023-10-05T20:14:55.789Z,5.75
2023-10-05T20:18:22.399Z,4.75
2023-10-05T20:21:51.604Z,4.73
2023-10-05T20:25:16.636Z,5.03
2023-10-05T20:28:42.906Z,4.43
2023-10-05T20:32:07.327Z,3.85
2023-10-05T20:35:31.793Z,5.00
2023-10-05T20:38:57.516Z,4.20
2023-10-05T20:42:21.582Z,4.35
2023-10-05T20:45:45.958Z,5.00
2023-10-05T20:49:10.766Z,4.65
2023-10-05T20:52:35.184Z,4.05
2023-10-05T20:56:00.548Z,4.20
2023-10-05T20:59:27.997Z,4.60
2023-10-05T21:02:52.379Z,4.70
2023-10-05T21:06:17.210Z,5.37
2023-10-05T21:09:41.863Z,4.93
2023-10-05T21:13:07.582Z,4.90
2023-10-05T21:16:31.817Z,4.30
2023-10-05T21:19:56.452Z,2.83
2023-10-05T21:23:20.962Z,2.80
2023-10-05T21:26:45.208Z,19.80
2023-10-05T21:30:12.710Z,2.93
2023-10-05T21:33:36.943Z,5.93
2023-10-05T21:37:01.055Z,5.95
2023-10-05T21:40:25.622Z,4.97
2023-10-05T21:43:50.268Z,5.68
2023-10-05T21:47:17.069Z,3.60
2023-10-05T21:50:40.735Z,4.47
2023-10-05T21:54:05.369Z,12.55
2023-10-05T21:57:29.658Z,12.15
2023-10-05T22:00:55.624Z,8.55
2023-10-05T22:04:21.756Z,9.43
2023-10-05T22:07:47.520Z,8.68
2023-10-05T22:11:12.578Z,9.25
2023-10-05T22:14:36.736Z,10.60
2023-10-05T22:18:01.019Z,10.23
2023-10-05T22:21:26.339Z,8.20
2023-10-05T22:24:51.032Z,7.40
2023-10-05T22:28:15.058Z,7.78
2023-10-05T22:31:39.593Z,8.30
2023-10-05T22:35:04.965Z,8.35
2023-10-05T22:38:41.585Z,7.97
2023-10-05T22:42:08.759Z,7.40
2023-10-05T22:45:34.150Z,16.12
2023-10-05T22:48:58.711Z,14.55
2023-10-05T22:52:22.596Z,15.27
2023-10-05T22:55:47.932Z,17.97
2023-10-05T22:59:12.107Z,15.70
2023-10-05T23:02:35.962Z,16.35
2023-10-05T23:06:00.271Z,15.48
2023-10-05T23:09:24.742Z,15.60
2023-10-05T23:12:50.313Z,16.97
2023-10-05T23:16:19.083Z,17.95
2023-10-05T23:19:44.905Z,17.58
2023-10-05T23:23:09.429Z,19.35
2023-10-05T23:26:33.615Z,19.67
2023-10-05T23:29:59.092Z,20.03
2023-10-05T23:33:27.488Z,20.27
2023-10-05T23:36:51.781Z,19.75
2023-10-05T23:40:17.397Z,19.70
2023-10-05T23:43:42.421Z,4.30
2023-10-05T23:47:23.823Z,3.40
2023-10-05T23:50:48.652Z,3.37
2023-10-05T23:54:13.191Z,4.03
2023-10-05T23:57:37.764Z,3.22
